sensor_id;sensor_type;location;lat;lon;timestamp;P1;durP1;ratioP1;P2;durP2;ratioP2
12511;SDS011;6321;53.798;10.382;2022-07-29T00:02:08;2.77;;;2.20;;
12511;SDS011;6321;53.798;10.382;2022-07-29T00:04:34;3.10;;;2.53;;
12511;SDS011;6321;53.798;10.382;2022-07-29T00:07:00;2.63;;;2.33;;
12511;SDS011;6321;53.798;10.382;2022-07-29T00:09:26;3.07;;;2.20;;
12511;SDS011;6321;53.798;10.382;2022-07-29T00:11:52;3.87;;;2.70;;
12511;SDS011;6321;53.798;10.382;2022-07-29T00:14:20;3.03;;;2.83;;
12511;SDS011;6321;53.798;10.382;2022-07-29T00:16:45;4.13;;;2.67;;
12511;SDS011;6321;53.798;10.382;2022-07-29T00:19:11;3.13;;;2.37;;
12511;SDS011;6321;53.798;10.382;2022-07-29T00:21:36;3.43;;;2.33;;
12511;SDS011;6321;53.798;10.382;2022-07-29T00:24:02;4.23;;;2.57;;
12511;SDS011;6321;53.798;10.382;2022-07-29T00:26:27;3.20;;;2.30;;
12511;SDS011;6321;53.798;10.382;2022-07-29T00:28:56;3.97;;;2.20;;
12511;SDS011;6321;53.798;10.382;2022-07-29T00:31:23;4.20;;;2.27;;
12511;SDS011;6321;53.798;10.382;2022-07-29T00:33:48;2.50;;;2.33;;
12511;SDS011;6321;53.798;10.382;2022-07-29T00:36:14;3.03;;;2.47;;
12511;SDS011;6321;53.798;10.382;2022-07-29T00:38:39;4.00;;;2.60;;
12511;SDS011;6321;53.798;10.382;2022-07-29T00:41:06;3.53;;;2.60;;
12511;SDS011;6321;53.798;10.382;2022-07-29T00:43:32;3.30;;;3.00;;
12511;SDS011;6321;53.798;10.382;2022-07-29T00:45:57;3.77;;;3.10;;
12511;SDS011;6321;53.798;10.382;2022-07-29T00:48:22;4.17;;;2.80;;
12511;SDS011;6321;53.798;10.382;2022-07-29T00:50:48;5.37;;;2.90;;
12511;SDS011;6321;53.798;10.382;2022-07-29T00:53:14;4.90;;;2.73;;
12511;SDS011;6321;53.798;10.382;2022-07-29T00:55:40;2.60;;;2.40;;
12511;SDS011;6321;53.798;10.382;2022-07-29T00:58:05;4.07;;;2.73;;
12511;SDS011;6321;53.798;10.382;2022-07-29T01:00:31;3.23;;;2.43;;
12511;SDS011;6321;53.798;10.382;2022-07-29T01:02:57;3.07;;;2.60;;
12511;SDS011;6321;53.798;10.382;2022-07-29T01:05:23;4.80;;;2.80;;
12511;SDS011;6321;53.798;10.382;2022-07-29T01:07:51;3.30;;;2.40;;
12511;SDS011;6321;53.798;10.382;2022-07-29T01:10:18;4.23;;;3.10;;
12511;SDS011;6321;53.798;10.382;2022-07-29T01:12:46;3.97;;;2.80;;
12511;SDS011;6321;53.798;10.382;2022-07-29T01:15:15;4.00;;;2.60;;
12511;SDS011;6321;53.798;10.382;2022-07-29T01:25:54;3.83;;;2.67;;
12511;SDS011;6321;53.798;10.382;2022-07-29T01:28:36;3.00;;;2.57;;
12511;SDS011;6321;53.798;10.382;2022-07-29T01:31:16;3.03;;;2.80;;
12511;SDS011;6321;53.798;10.382;2022-07-29T01:33:45;3.37;;;2.90;;
12511;SDS011;6321;53.798;10.382;2022-07-29T01:36:20;3.53;;;2.57;;
12511;SDS011;6321;53.798;10.382;2022-07-29T01:38:58;2.70;;;2.40;;
12511;SDS011;6321;53.798;10.382;2022-07-29T01:41:29;4.57;;;2.90;;
12511;SDS011;6321;53.798;10.382;2022-07-29T01:44:01;4.60;;;3.00;;
12511;SDS011;6321;53.798;10.382;2022-07-29T01:46:35;3.67;;;2.93;;
12511;SDS011;6321;53.798;10.382;2022-07-29T01:51:46;3.50;;;2.80;;
12511;SDS011;6321;53.798;10.382;2022-07-29T01:54:20;3.10;;;2.53;;
12511;SDS011;6321;53.798;10.382;2022-07-29T01:56:59;3.33;;;2.70;;
12511;SDS011;6321;53.798;10.382;2022-07-29T01:59:26;3.60;;;2.97;;
12511;SDS011;6321;53.798;10.382;2022-07-29T02:01:54;3.00;;;2.30;;
12511;SDS011;6321;53.798;10.382;2022-07-29T02:04:22;3.67;;;2.70;;
12511;SDS011;6321;53.798;10.382;2022-07-29T02:06:50;2.83;;;2.30;;
12511;SDS011;6321;53.798;10.382;2022-07-29T02:09:18;4.37;;;2.80;;
12511;SDS011;6321;53.798;10.382;2022-07-29T02:11:47;2.33;;;2.13;;
12511;SDS011;6321;53.798;10.382;2022-07-29T02:14:17;3.10;;;2.80;;
12511;SDS011;6321;53.798;10.382;2022-07-29T02:16:45;3.40;;;2.43;;
12511;SDS011;6321;53.798;10.382;2022-07-29T02:19:13;3.93;;;2.60;;
12511;SDS011;6321;53.798;10.382;2022-07-29T02:21:39;3.83;;;2.87;;
12511;SDS011;6321;53.798;10.382;2022-07-29T02:24:05;3.57;;;2.80;;
12511;SDS011;6321;53.798;10.382;2022-07-29T02:26:33;3.70;;;2.90;;
12511;SDS011;6321;53.798;10.382;2022-07-29T02:28:59;5.07;;;2.97;;
12511;SDS011;6321;53.798;10.382;2022-07-29T02:31:27;3.73;;;2.90;;
12511;SDS011;6321;53.798;10.382;2022-07-29T02:33:56;3.00;;;2.80;;
12511;SDS011;6321;53.798;10.382;2022-07-29T02:36:23;3.43;;;2.60;;
12511;SDS011;6321;53.798;10.382;2022-07-29T02:38:50;3.60;;;2.70;;
12511;SDS011;6321;53.798;10.382;2022-07-29T02:42:04;2.83;;;2.50;;
12511;SDS011;6321;53.798;10.382;2022-07-29T02:44:10;5.27;;;3.00;;
12511;SDS011;6321;53.798;10.382;2022-07-29T02:46:49;4.83;;;2.80;;
12511;SDS011;6321;53.798;10.382;2022-07-29T02:52:16;2.80;;;2.60;;
12511;SDS011;6321;53.798;10.382;2022-07-29T02:54:57;3.37;;;2.57;;
12511;SDS011;6321;53.798;10.382;2022-07-29T02:57:31;4.90;;;2.87;;
12511;SDS011;6321;53.798;10.382;2022-07-29T03:00:07;5.10;;;3.00;;
12511;SDS011;6321;53.798;10.382;2022-07-29T03:02:38;5.23;;;2.97;;
12511;SDS011;6321;53.798;10.382;2022-07-29T03:05:08;4.10;;;3.20;;
12511;SDS011;6321;53.798;10.382;2022-07-29T03:07:38;3.90;;;3.20;;
12511;SDS011;6321;53.798;10.382;2022-07-29T03:10:05;3.57;;;3.20;;
12511;SDS011;6321;53.798;10.382;2022-07-29T03:12:33;5.37;;;3.60;;
12511;SDS011;6321;53.798;10.382;2022-07-29T03:14:59;6.00;;;3.40;;
12511;SDS011;6321;53.798;10.382;2022-07-29T03:17:26;4.20;;;2.93;;
12511;SDS011;6321;53.798;10.382;2022-07-29T03:19:52;4.53;;;3.90;;
12511;SDS011;6321;53.798;10.382;2022-07-29T03:22:18;4.17;;;3.23;;
12511;SDS011;6321;53.798;10.382;2022-07-29T03:24:44;4.30;;;3.10;;
12511;SDS011;6321;53.798;10.382;2022-07-29T03:27:10;4.83;;;3.40;;
12511;SDS011;6321;53.798;10.382;2022-07-29T03:29:35;6.03;;;3.73;;
12511;SDS011;6321;53.798;10.382;2022-07-29T03:32:02;6.33;;;4.20;;
12511;SDS011;6321;53.798;10.382;2022-07-29T03:34:29;6.00;;;3.10;;
12511;SDS011;6321;53.798;10.382;2022-07-29T03:36:54;6.13;;;3.47;;
12511;SDS011;6321;53.798;10.382;2022-07-29T03:39:21;4.17;;;3.77;;
12511;SDS011;6321;53.798;10.382;2022-07-29T03:41:51;7.50;;;4.70;;
12511;SDS011;6321;53.798;10.382;2022-07-29T03:44:20;6.80;;;3.40;;
12511;SDS011;6321;53.798;10.382;2022-07-29T03:46:48;4.10;;;3.50;;
12511;SDS011;6321;53.798;10.382;2022-07-29T03:49:15;5.10;;;3.33;;
12511;SDS011;6321;53.798;10.382;2022-07-29T03:51:43;3.20;;;2.90;;
12511;SDS011;6321;53.798;10.382;2022-07-29T03:54:09;3.40;;;3.10;;
12511;SDS011;6321;53.798;10.382;2022-07-29T03:56:35;4.23;;;2.80;;
12511;SDS011;6321;53.798;10.382;2022-07-29T03:59:04;4.73;;;3.07;;
12511;SDS011;6321;53.798;10.382;2022-07-29T04:01:32;5.37;;;4.00;;
12511;SDS011;6321;53.798;10.382;2022-07-29T04:03:59;4.67;;;3.67;;
12511;SDS011;6321;53.798;10.382;2022-07-29T04:06:26;3.83;;;2.90;;
12511;SDS011;6321;53.798;10.382;2022-07-29T04:08:51;5.87;;;3.80;;
12511;SDS011;6321;53.798;10.382;2022-07-29T04:11:17;4.57;;;4.10;;
12511;SDS011;6321;53.798;10.382;2022-07-29T04:13:43;8.10;;;4.30;;
12511;SDS011;6321;53.798;10.382;2022-07-29T04:16:08;8.30;;;4.00;;
12511;SDS011;6321;53.798;10.382;2022-07-29T04:18:34;8.50;;;4.40;;
12511;SDS011;6321;53.798;10.382;2022-07-29T04:20:59;6.33;;;4.27;;
12511;SDS011;6321;53.798;10.382;2022-07-29T04:23:26;6.87;;;4.17;;
12511;SDS011;6321;53.798;10.382;2022-07-29T04:25:52;5.87;;;4.23;;
12511;SDS011;6321;53.798;10.382;2022-07-29T04:28:18;8.87;;;4.70;;
12511;SDS011;6321;53.798;10.382;2022-07-29T04:30:44;9.03;;;4.47;;
12511;SDS011;6321;53.798;10.382;2022-07-29T04:33:09;4.83;;;3.90;;
12511;SDS011;6321;53.798;10.382;2022-07-29T04:35:36;6.53;;;4.30;;
12511;SDS011;6321;53.798;10.382;2022-07-29T04:38:02;7.93;;;4.07;;
12511;SDS011;6321;53.798;10.382;2022-07-29T04:40:29;6.90;;;4.27;;
12511;SDS011;6321;53.798;10.382;2022-07-29T04:42:54;9.40;;;4.60;;
12511;SDS011;6321;53.798;10.382;2022-07-29T04:45:20;6.07;;;3.57;;
12511;SDS011;6321;53.798;10.382;2022-07-29T04:47:45;7.13;;;4.13;;
12511;SDS011;6321;53.798;10.382;2022-07-29T04:50:11;8.27;;;3.83;;
12511;SDS011;6321;53.798;10.382;2022-07-29T04:52:36;7.00;;;4.57;;
12511;SDS011;6321;53.798;10.382;2022-07-29T04:55:03;7.77;;;4.27;;
12511;SDS011;6321;53.798;10.382;2022-07-29T04:57:29;8.90;;;4.23;;
12511;SDS011;6321;53.798;10.382;2022-07-29T04:59:55;8.87;;;4.60;;
12511;SDS011;6321;53.798;10.382;2022-07-29T05:02:20;6.40;;;3.73;;
12511;SDS011;6321;53.798;10.382;2022-07-29T05:04:46;6.53;;;3.83;;
12511;SDS011;6321;53.798;10.382;2022-07-29T05:07:12;6.43;;;3.90;;
12511;SDS011;6321;53.798;10.382;2022-07-29T05:09:39;9.73;;;4.27;;
12511;SDS011;6321;53.798;10.382;2022-07-29T05:12:05;7.43;;;4.67;;
12511;SDS011;6321;53.798;10.382;2022-07-29T05:14:30;5.23;;;4.33;;
12511;SDS011;6321;53.798;10.382;2022-07-29T05:16:56;5.80;;;4.10;;
12511;SDS011;6321;53.798;10.382;2022-07-29T05:19:22;5.60;;;4.37;;
12511;SDS011;6321;53.798;10.382;2022-07-29T05:21:48;7.03;;;4.40;;
12511;SDS011;6321;53.798;10.382;2022-07-29T05:24:14;6.70;;;4.17;;
12511;SDS011;6321;53.798;10.382;2022-07-29T05:26:40;5.83;;;4.03;;
12511;SDS011;6321;53.798;10.382;2022-07-29T05:29:05;6.20;;;3.70;;
12511;SDS011;6321;53.798;10.382;2022-07-29T05:31:31;5.67;;;3.97;;
12511;SDS011;6321;53.798;10.382;2022-07-29T05:33:56;6.70;;;3.60;;
12511;SDS011;6321;53.798;10.382;2022-07-29T05:36:22;10.20;;;4.50;;
12511;SDS011;6321;53.798;10.382;2022-07-29T05:38:48;9.17;;;4.13;;
12511;SDS011;6321;53.798;10.382;2022-07-29T05:41:13;8.30;;;4.40;;
12511;SDS011;6321;53.798;10.382;2022-07-29T05:43:39;9.93;;;3.73;;
12511;SDS011;6321;53.798;10.382;2022-07-29T05:46:04;8.10;;;3.90;;
12511;SDS011;6321;53.798;10.382;2022-07-29T05:48:30;7.17;;;3.73;;
12511;SDS011;6321;53.798;10.382;2022-07-29T05:50:55;6.87;;;4.00;;
12511;SDS011;6321;53.798;10.382;2022-07-29T05:53:21;5.60;;;3.70;;
12511;SDS011;6321;53.798;10.382;2022-07-29T05:55:47;7.03;;;3.47;;
12511;SDS011;6321;53.798;10.382;2022-07-29T05:58:13;5.13;;;3.90;;
12511;SDS011;6321;53.798;10.382;2022-07-29T06:00:38;4.37;;;3.57;;
12511;SDS011;6321;53.798;10.382;2022-07-29T06:03:04;6.10;;;3.90;;
12511;SDS011;6321;53.798;10.382;2022-07-29T06:05:30;5.60;;;3.73;;
12511;SDS011;6321;53.798;10.382;2022-07-29T06:07:55;4.40;;;3.20;;
12511;SDS011;6321;53.798;10.382;2022-07-29T06:10:21;6.33;;;3.60;;
12511;SDS011;6321;53.798;10.382;2022-07-29T06:12:46;7.10;;;3.67;;
12511;SDS011;6321;53.798;10.382;2022-07-29T06:15:12;4.40;;;3.20;;
12511;SDS011;6321;53.798;10.382;2022-07-29T06:17:37;6.13;;;3.40;;
12511;SDS011;6321;53.798;10.382;2022-07-29T06:20:03;11.40;;;3.60;;
12511;SDS011;6321;53.798;10.382;2022-07-29T06:22:29;8.57;;;3.70;;
12511;SDS011;6321;53.798;10.382;2022-07-29T06:24:55;4.20;;;3.03;;
12511;SDS011;6321;53.798;10.382;2022-07-29T06:27:20;4.27;;;3.27;;
12511;SDS011;6321;53.798;10.382;2022-07-29T06:29:46;5.63;;;3.20;;
12511;SDS011;6321;53.798;10.382;2022-07-29T06:32:11;6.40;;;2.83;;
12511;SDS011;6321;53.798;10.382;2022-07-29T06:34:37;4.97;;;2.87;;
12511;SDS011;6321;53.798;10.382;2022-07-29T06:37:06;6.20;;;2.97;;
12511;SDS011;6321;53.798;10.382;2022-07-29T06:39:33;6.90;;;2.90;;
12511;SDS011;6321;53.798;10.382;2022-07-29T06:42:00;9.00;;;3.23;;
12511;SDS011;6321;53.798;10.382;2022-07-29T06:44:25;7.93;;;3.00;;
12511;SDS011;6321;53.798;10.382;2022-07-29T06:46:51;6.77;;;2.80;;
12511;SDS011;6321;53.798;10.382;2022-07-29T06:49:17;3.47;;;2.33;;
12511;SDS011;6321;53.798;10.382;2022-07-29T06:51:43;3.33;;;2.67;;
12511;SDS011;6321;53.798;10.382;2022-07-29T06:54:08;5.10;;;2.70;;
12511;SDS011;6321;53.798;10.382;2022-07-29T06:56:35;5.33;;;2.93;;
12511;SDS011;6321;53.798;10.382;2022-07-29T06:59:02;5.77;;;2.50;;
12511;SDS011;6321;53.798;10.382;2022-07-29T07:01:28;7.33;;;2.50;;
12511;SDS011;6321;53.798;10.382;2022-07-29T07:03:54;6.67;;;3.13;;
12511;SDS011;6321;53.798;10.382;2022-07-29T07:06:19;7.63;;;3.07;;
12511;SDS011;6321;53.798;10.382;2022-07-29T07:08:45;4.40;;;2.30;;
12511;SDS011;6321;53.798;10.382;2022-07-29T07:11:10;4.53;;;3.03;;
12511;SDS011;6321;53.798;10.382;2022-07-29T07:13:36;5.60;;;2.80;;
12511;SDS011;6321;53.798;10.382;2022-07-29T07:16:02;6.53;;;3.10;;
12511;SDS011;6321;53.798;10.382;2022-07-29T07:18:29;4.50;;;2.77;;
12511;SDS011;6321;53.798;10.382;2022-07-29T07:20:55;5.20;;;2.67;;
12511;SDS011;6321;53.798;10.382;2022-07-29T07:23:21;4.77;;;2.93;;
12511;SDS011;6321;53.798;10.382;2022-07-29T07:25:47;6.10;;;3.10;;
12511;SDS011;6321;53.798;10.382;2022-07-29T07:28:12;5.00;;;2.83;;
12511;SDS011;6321;53.798;10.382;2022-07-29T07:30:38;3.17;;;2.53;;
12511;SDS011;6321;53.798;10.382;2022-07-29T07:33:04;4.13;;;2.77;;
12511;SDS011;6321;53.798;10.382;2022-07-29T07:35:30;5.57;;;2.70;;
12511;SDS011;6321;53.798;10.382;2022-07-29T07:37:55;4.63;;;2.77;;
12511;SDS011;6321;53.798;10.382;2022-07-29T07:40:21;4.47;;;2.53;;
12511;SDS011;6321;53.798;10.382;2022-07-29T07:42:47;3.67;;;2.70;;
12511;SDS011;6321;53.798;10.382;2022-07-29T07:45:12;4.00;;;2.90;;
12511;SDS011;6321;53.798;10.382;2022-07-29T07:47:38;5.30;;;2.73;;
12511;SDS011;6321;53.798;10.382;2022-07-29T07:50:05;6.03;;;2.90;;
12511;SDS011;6321;53.798;10.382;2022-07-29T07:52:32;5.83;;;3.17;;
12511;SDS011;6321;53.798;10.382;2022-07-29T07:54:58;5.33;;;2.67;;
12511;SDS011;6321;53.798;10.382;2022-07-29T07:57:24;3.13;;;2.67;;
12511;SDS011;6321;53.798;10.382;2022-07-29T07:59:49;5.10;;;3.17;;
12511;SDS011;6321;53.798;10.382;2022-07-29T08:02:15;5.07;;;2.50;;
12511;SDS011;6321;53.798;10.382;2022-07-29T08:04:40;5.50;;;2.83;;
12511;SDS011;6321;53.798;10.382;2022-07-29T08:07:06;5.10;;;2.97;;
12511;SDS011;6321;53.798;10.382;2022-07-29T08:09:33;3.70;;;2.40;;
12511;SDS011;6321;53.798;10.382;2022-07-29T08:11:59;5.30;;;2.87;;
12511;SDS011;6321;53.798;10.382;2022-07-29T08:14:29;3.30;;;2.90;;
12511;SDS011;6321;53.798;10.382;2022-07-29T08:16:55;4.13;;;2.80;;
12511;SDS011;6321;53.798;10.382;2022-07-29T08:19:21;4.57;;;2.43;;
12511;SDS011;6321;53.798;10.382;2022-07-29T08:21:46;5.53;;;3.10;;
12511;SDS011;6321;53.798;10.382;2022-07-29T08:24:12;5.83;;;2.73;;
12511;SDS011;6321;53.798;10.382;2022-07-29T08:26:56;5.03;;;2.70;;
12511;SDS011;6321;53.798;10.382;2022-07-29T08:29:22;4.40;;;2.50;;
12511;SDS011;6321;53.798;10.382;2022-07-29T08:31:47;6.63;;;3.47;;
12511;SDS011;6321;53.798;10.382;2022-07-29T08:34:13;6.67;;;2.77;;
12511;SDS011;6321;53.798;10.382;2022-07-29T08:36:38;5.57;;;2.70;;
12511;SDS011;6321;53.798;10.382;2022-07-29T08:39:04;4.63;;;2.70;;
12511;SDS011;6321;53.798;10.382;2022-07-29T08:41:30;5.30;;;2.50;;
12511;SDS011;6321;53.798;10.382;2022-07-29T08:43:56;4.80;;;2.30;;
12511;SDS011;6321;53.798;10.382;2022-07-29T08:46:22;4.47;;;2.60;;
12511;SDS011;6321;53.798;10.382;2022-07-29T08:48:47;7.03;;;2.63;;
12511;SDS011;6321;53.798;10.382;2022-07-29T08:51:18;6.70;;;2.73;;
12511;SDS011;6321;53.798;10.382;2022-07-29T08:53:45;5.60;;;3.03;;
12511;SDS011;6321;53.798;10.382;2022-07-29T08:56:13;4.93;;;2.67;;
12511;SDS011;6321;53.798;10.382;2022-07-29T08:58:41;5.27;;;2.63;;
12511;SDS011;6321;53.798;10.382;2022-07-29T09:01:08;7.40;;;3.17;;
12511;SDS011;6321;53.798;10.382;2022-07-29T09:03:36;3.03;;;2.70;;
12511;SDS011;6321;53.798;10.382;2022-07-29T09:06:03;7.27;;;2.87;;
12511;SDS011;6321;53.798;10.382;2022-07-29T09:08:33;5.43;;;2.87;;
12511;SDS011;6321;53.798;10.382;2022-07-29T09:11:00;7.00;;;2.90;;
12511;SDS011;6321;53.798;10.382;2022-07-29T09:13:28;3.63;;;2.47;;
12511;SDS011;6321;53.798;10.382;2022-07-29T09:15:53;5.27;;;2.67;;
12511;SDS011;6321;53.798;10.382;2022-07-29T09:18:33;6.10;;;3.17;;
12511;SDS011;6321;53.798;10.382;2022-07-29T09:21:02;5.00;;;2.80;;
12511;SDS011;6321;53.798;10.382;2022-07-29T09:24:06;4.63;;;2.83;;
12511;SDS011;6321;53.798;10.382;2022-07-29T09:26:34;4.87;;;2.73;;
12511;SDS011;6321;53.798;10.382;2022-07-29T09:29:35;6.33;;;3.13;;
12511;SDS011;6321;53.798;10.382;2022-07-29T09:31:54;4.93;;;3.10;;
12511;SDS011;6321;53.798;10.382;2022-07-29T09:36:50;4.43;;;2.53;;
12511;SDS011;6321;53.798;10.382;2022-07-29T09:39:26;3.93;;;3.13;;
12511;SDS011;6321;53.798;10.382;2022-07-29T09:42:00;7.40;;;2.70;;
12511;SDS011;6321;53.798;10.382;2022-07-29T09:44:40;4.63;;;3.00;;
12511;SDS011;6321;53.798;10.382;2022-07-29T09:47:16;7.00;;;3.10;;
12511;SDS011;6321;53.798;10.382;2022-07-29T09:49:56;5.17;;;3.10;;
12511;SDS011;6321;53.798;10.382;2022-07-29T09:52:24;3.87;;;2.83;;
12511;SDS011;6321;53.798;10.382;2022-07-29T09:55:04;4.77;;;2.50;;
12511;SDS011;6321;53.798;10.382;2022-07-29T09:57:33;5.43;;;2.93;;
12511;SDS011;6321;53.798;10.382;2022-07-29T10:00:09;5.60;;;2.70;;
12511;SDS011;6321;53.798;10.382;2022-07-29T10:02:37;3.93;;;2.80;;
12511;SDS011;6321;53.798;10.382;2022-07-29T10:05:04;3.93;;;2.67;;
12511;SDS011;6321;53.798;10.382;2022-07-29T10:13:05;4.27;;;2.50;;
12511;SDS011;6321;53.798;10.382;2022-07-29T10:15:33;3.67;;;3.07;;
12511;SDS011;6321;53.798;10.382;2022-07-29T10:18:05;6.30;;;2.97;;
12511;SDS011;6321;53.798;10.382;2022-07-29T10:20:32;3.90;;;3.00;;
12511;SDS011;6321;53.798;10.382;2022-07-29T10:22:59;4.30;;;2.60;;
12511;SDS011;6321;53.798;10.382;2022-07-29T10:25:25;5.13;;;3.00;;
12511;SDS011;6321;53.798;10.382;2022-07-29T10:27:51;5.67;;;2.80;;
12511;SDS011;6321;53.798;10.382;2022-07-29T10:30:17;3.40;;;2.53;;
12511;SDS011;6321;53.798;10.382;2022-07-29T10:35:44;5.33;;;2.97;;
12511;SDS011;6321;53.798;10.382;2022-07-29T10:42:15;3.43;;;2.77;;
12511;SDS011;6321;53.798;10.382;2022-07-29T10:44:24;3.27;;;2.70;;
12511;SDS011;6321;53.798;10.382;2022-07-29T10:46:52;6.37;;;2.80;;
12511;SDS011;6321;53.798;10.382;2022-07-29T10:52:09;5.03;;;2.93;;
12511;SDS011;6321;53.798;10.382;2022-07-29T10:57:20;3.27;;;2.50;;
12511;SDS011;6321;53.798;10.382;2022-07-29T10:59:46;4.77;;;2.47;;
12511;SDS011;6321;53.798;10.382;2022-07-29T11:04:59;5.13;;;2.57;;
12511;SDS011;6321;53.798;10.382;2022-07-29T11:07:26;3.77;;;2.77;;
12511;SDS011;6321;53.798;10.382;2022-07-29T11:15:04;4.93;;;3.10;;
12511;SDS011;6321;53.798;10.382;2022-07-29T11:20:37;5.07;;;3.17;;
12511;SDS011;6321;53.798;10.382;2022-07-29T11:28:56;5.43;;;2.83;;
12511;SDS011;6321;53.798;10.382;2022-07-29T11:31:36;5.53;;;2.90;;
12511;SDS011;6321;53.798;10.382;2022-07-29T11:34:25;3.93;;;2.57;;
12511;SDS011;6321;53.798;10.382;2022-07-29T11:47:30;5.47;;;2.67;;
12511;SDS011;6321;53.798;10.382;2022-07-29T11:49:56;7.13;;;2.77;;
12511;SDS011;6321;53.798;10.382;2022-07-29T11:52:23;5.40;;;2.93;;
12511;SDS011;6321;53.798;10.382;2022-07-29T11:54:56;5.40;;;2.60;;
12511;SDS011;6321;53.798;10.382;2022-07-29T11:57:23;6.97;;;2.50;;
12511;SDS011;6321;53.798;10.382;2022-07-29T11:59:49;4.60;;;2.77;;
12511;SDS011;6321;53.798;10.382;2022-07-29T12:02:16;6.80;;;2.60;;
12511;SDS011;6321;53.798;10.382;2022-07-29T12:07:16;6.47;;;2.63;;
12511;SDS011;6321;53.798;10.382;2022-07-29T12:09:52;5.20;;;3.00;;
12511;SDS011;6321;53.798;10.382;2022-07-29T12:12:18;3.53;;;2.40;;
12511;SDS011;6321;53.798;10.382;2022-07-29T12:14:44;3.80;;;2.60;;
12511;SDS011;6321;53.798;10.382;2022-07-29T12:17:25;4.43;;;2.67;;
12511;SDS011;6321;53.798;10.382;2022-07-29T12:19:56;4.93;;;2.37;;
12511;SDS011;6321;53.798;10.382;2022-07-29T12:22:27;5.00;;;2.43;;
12511;SDS011;6321;53.798;10.382;2022-07-29T12:24:54;4.30;;;2.43;;
12511;SDS011;6321;53.798;10.382;2022-07-29T12:27:21;6.57;;;2.83;;
12511;SDS011;6321;53.798;10.382;2022-07-29T12:29:59;4.47;;;2.70;;
12511;SDS011;6321;53.798;10.382;2022-07-29T12:32:37;8.07;;;2.83;;
12511;SDS011;6321;53.798;10.382;2022-07-29T12:35:21;6.53;;;2.70;;
12511;SDS011;6321;53.798;10.382;2022-07-29T12:37:47;3.47;;;2.50;;
12511;SDS011;6321;53.798;10.382;2022-07-29T12:40:15;5.67;;;3.27;;
12511;SDS011;6321;53.798;10.382;2022-07-29T12:42:42;3.93;;;2.50;;
12511;SDS011;6321;53.798;10.382;2022-07-29T12:45:32;6.93;;;3.27;;
12511;SDS011;6321;53.798;10.382;2022-07-29T12:47:58;5.47;;;2.60;;
12511;SDS011;6321;53.798;10.382;2022-07-29T12:50:23;3.10;;;2.43;;
12511;SDS011;6321;53.798;10.382;2022-07-29T12:52:50;6.30;;;2.90;;
12511;SDS011;6321;53.798;10.382;2022-07-29T12:55:15;7.47;;;3.37;;
12511;SDS011;6321;53.798;10.382;2022-07-29T12:58:01;7.30;;;3.07;;
12511;SDS011;6321;53.798;10.382;2022-07-29T13:00:26;5.30;;;2.67;;
12511;SDS011;6321;53.798;10.382;2022-07-29T13:02:55;4.87;;;2.80;;
12511;SDS011;6321;53.798;10.382;2022-07-29T13:05:22;6.00;;;3.40;;
12511;SDS011;6321;53.798;10.382;2022-07-29T13:07:49;4.87;;;2.90;;
12511;SDS011;6321;53.798;10.382;2022-07-29T13:10:18;6.47;;;3.30;;
12511;SDS011;6321;53.798;10.382;2022-07-29T13:15:34;5.03;;;2.40;;
12511;SDS011;6321;53.798;10.382;2022-07-29T13:18:01;5.43;;;2.60;;
12511;SDS011;6321;53.798;10.382;2022-07-29T13:20:28;4.57;;;2.30;;
12511;SDS011;6321;53.798;10.382;2022-07-29T13:23:00;6.07;;;2.67;;
12511;SDS011;6321;53.798;10.382;2022-07-29T13:25:29;3.60;;;2.87;;
12511;SDS011;6321;53.798;10.382;2022-07-29T13:27:56;5.63;;;3.13;;
12511;SDS011;6321;53.798;10.382;2022-07-29T13:30:24;6.00;;;2.67;;
12511;SDS011;6321;53.798;10.382;2022-07-29T13:32:51;5.47;;;2.30;;
12511;SDS011;6321;53.798;10.382;2022-07-29T13:35:17;4.90;;;2.63;;
12511;SDS011;6321;53.798;10.382;2022-07-29T13:37:43;4.73;;;2.70;;
12511;SDS011;6321;53.798;10.382;2022-07-29T13:40:09;6.80;;;2.83;;
12511;SDS011;6321;53.798;10.382;2022-07-29T13:42:35;5.83;;;2.40;;
12511;SDS011;6321;53.798;10.382;2022-07-29T13:45:02;6.20;;;3.07;;
12511;SDS011;6321;53.798;10.382;2022-07-29T13:47:28;6.37;;;2.67;;
12511;SDS011;6321;53.798;10.382;2022-07-29T13:49:54;4.17;;;2.00;;
12511;SDS011;6321;53.798;10.382;2022-07-29T13:52:19;5.83;;;2.40;;
12511;SDS011;6321;53.798;10.382;2022-07-29T13:54:45;5.63;;;2.53;;
12511;SDS011;6321;53.798;10.382;2022-07-29T13:57:11;6.03;;;2.30;;
12511;SDS011;6321;53.798;10.382;2022-07-29T13:59:38;5.90;;;3.27;;
12511;SDS011;6321;53.798;10.382;2022-07-29T14:02:08;3.23;;;2.50;;
12511;SDS011;6321;53.798;10.382;2022-07-29T14:04:34;5.77;;;2.73;;
12511;SDS011;6321;53.798;10.382;2022-07-29T14:07:00;4.70;;;2.63;;
12511;SDS011;6321;53.798;10.382;2022-07-29T14:09:26;2.90;;;2.30;;
12511;SDS011;6321;53.798;10.382;2022-07-29T14:11:52;3.43;;;2.50;;
12511;SDS011;6321;53.798;10.382;2022-07-29T14:14:18;7.20;;;2.30;;
12511;SDS011;6321;53.798;10.382;2022-07-29T14:16:43;6.10;;;2.63;;
12511;SDS011;6321;53.798;10.382;2022-07-29T14:19:09;4.67;;;2.50;;
12511;SDS011;6321;53.798;10.382;2022-07-29T14:21:35;4.00;;;2.83;;
12511;SDS011;6321;53.798;10.382;2022-07-29T14:24:01;4.03;;;2.73;;
12511;SDS011;6321;53.798;10.382;2022-07-29T14:26:27;4.77;;;2.70;;
12511;SDS011;6321;53.798;10.382;2022-07-29T14:28:52;5.87;;;3.00;;
12511;SDS011;6321;53.798;10.382;2022-07-29T14:31:18;5.37;;;2.50;;
12511;SDS011;6321;53.798;10.382;2022-07-29T14:33:43;5.20;;;2.50;;
12511;SDS011;6321;53.798;10.382;2022-07-29T14:36:09;3.90;;;2.40;;
12511;SDS011;6321;53.798;10.382;2022-07-29T14:38:35;3.67;;;2.63;;
12511;SDS011;6321;53.798;10.382;2022-07-29T14:41:02;5.40;;;2.77;;
12511;SDS011;6321;53.798;10.382;2022-07-29T14:43:28;5.80;;;2.43;;
12511;SDS011;6321;53.798;10.382;2022-07-29T14:45:53;5.80;;;2.67;;
12511;SDS011;6321;53.798;10.382;2022-07-29T14:48:19;5.93;;;2.47;;
12511;SDS011;6321;53.798;10.382;2022-07-29T14:50:44;5.57;;;2.40;;
12511;SDS011;6321;53.798;10.382;2022-07-29T14:53:10;3.93;;;2.50;;
12511;SDS011;6321;53.798;10.382;2022-07-29T14:55:37;4.33;;;2.40;;
12511;SDS011;6321;53.798;10.382;2022-07-29T14:58:02;2.93;;;2.27;;
12511;SDS011;6321;53.798;10.382;2022-07-29T15:00:28;3.87;;;3.00;;
12511;SDS011;6321;53.798;10.382;2022-07-29T15:02:57;4.17;;;2.73;;
12511;SDS011;6321;53.798;10.382;2022-07-29T15:05:23;6.00;;;2.73;;
12511;SDS011;6321;53.798;10.382;2022-07-29T15:07:48;4.70;;;2.60;;
12511;SDS011;6321;53.798;10.382;2022-07-29T15:10:14;5.23;;;2.60;;
12511;SDS011;6321;53.798;10.382;2022-07-29T15:12:39;4.47;;;2.33;;
12511;SDS011;6321;53.798;10.382;2022-07-29T15:15:05;3.67;;;2.83;;
12511;SDS011;6321;53.798;10.382;2022-07-29T15:17:32;6.23;;;2.60;;
12511;SDS011;6321;53.798;10.382;2022-07-29T15:19:57;7.63;;;3.07;;
12511;SDS011;6321;53.798;10.382;2022-07-29T15:22:23;6.07;;;2.90;;
12511;SDS011;6321;53.798;10.382;2022-07-29T15:24:49;6.10;;;2.87;;
12511;SDS011;6321;53.798;10.382;2022-07-29T15:27:15;6.67;;;2.60;;
12511;SDS011;6321;53.798;10.382;2022-07-29T15:29:40;5.67;;;2.40;;
12511;SDS011;6321;53.798;10.382;2022-07-29T15:32:07;5.23;;;2.77;;
12511;SDS011;6321;53.798;10.382;2022-07-29T15:34:33;3.87;;;2.80;;
12511;SDS011;6321;53.798;10.382;2022-07-29T15:36:59;4.60;;;2.80;;
12511;SDS011;6321;53.798;10.382;2022-07-29T15:39:24;5.87;;;2.77;;
12511;SDS011;6321;53.798;10.382;2022-07-29T15:41:50;6.67;;;2.50;;
12511;SDS011;6321;53.798;10.382;2022-07-29T15:44:16;4.63;;;2.63;;
12511;SDS011;6321;53.798;10.382;2022-07-29T15:46:41;3.90;;;2.50;;
12511;SDS011;6321;53.798;10.382;2022-07-29T15:49:25;6.77;;;3.07;;
12511;SDS011;6321;53.798;10.382;2022-07-29T15:51:56;4.43;;;2.60;;
12511;SDS011;6321;53.798;10.382;2022-07-29T15:54:23;4.87;;;2.50;;
12511;SDS011;6321;53.798;10.382;2022-07-29T15:56:48;4.70;;;2.60;;
12511;SDS011;6321;53.798;10.382;2022-07-29T15:59:14;4.43;;;2.33;;